Time;durP1;ratioP1;P1;durP2;ratioP2;P2;SDS_P1;SDS_P2;PMS_P1;PMS_P2;Temp;Humidity;BMP_temperature;BMP_pressure;BME280_temperature;BME280_humidity;BME280_pressure;Samples;Min_cycle;Max_cycle;Signal;HPM_P1;HPM_P2
2022/06/23 00:01:28;;;;;;;;;;;;;;;;;;8419961;27;27421;-72
2022/06/23 00:05:29;;;;;;;;;;;;;;;;;;8413532;27;27461;-73
2022/06/23 00:09:29;;;;;;;;;;;;;;;;;;8411189;27;27487;-72
2022/06/23 00:13:29;;;;;;;;;;;;;;;;;;8408247;27;28305;-72
2022/06/23 00:17:29;;;;;;;;;;;;;;;;;;8406381;27;28387;-73
2022/06/23 00:21:29;;;;;;;;;;;;;;;;;;8408602;27;28396;-73
2022/06/23 00:25:29;;;;;;;;;;;;;;;;;;8413793;27;27728;-73
2022/06/23 00:29:29;;;;;;;;;;;;;;;;;;8419227;27;27910;-72
2022/06/23 00:33:30;;;;;;;;;;;;;;;;;;8421047;27;27544;-73
2022/06/23 00:37:30;;;;;;;;;;;;;;;;;;8419857;27;27150;-72
2022/06/23 00:41:30;;;;;;;;;;;;;;;;;;8414730;27;27405;-73
2022/06/23 00:45:30;;;;;;;;;;;;;;;;;;8418710;27;27532;-71
2022/06/23 00:49:30;;;;;;;;;;;;;;;;;;8416853;27;27272;-73
2022/06/23 00:53:30;;;;;;;;;;;;;;;;;;8412054;27;28569;-73
2022/06/23 00:57:31;;;;;;;;;;;;;;;;;;8417732;27;27401;-73
2022/06/23 01:01:31;;;;;;;;;;;;;;;;;;8418893;27;29269;-71
2022/06/23 01:05:31;;;;;;;;;;;;;;;;;;8415836;27;28321;-73
2022/06/23 01:09:31;;;;;;;;;;;;;;;;;;8418761;27;29258;-73
2022/06/23 01:13:31;;;;;;;;;;;;;;;;;;8417615;27;27283;-73
2022/06/23 01:17:31;;;;;;;;;;;;;;;;;;8416257;27;27580;-73
2022/06/23 01:21:31;;;;;;;;;;;;;;;;;;8412673;27;29155;-73
2022/06/23 01:25:32;;;;;;;;;;;;;;;;;;8413975;27;27215;-73
2022/06/23 01:29:32;;;;;;;;;;;;;;;;;;8417673;27;28627;-73
2022/06/23 01:33:32;;;;;;;;;;;;;;;;;;8412048;27;28250;-71
2022/06/23 01:37:32;;;;;;;;;;;;;;;;;;8413728;27;28611;-73
2022/06/23 01:41:32;;;;;;;;;;;;;;;;;;8418171;27;29064;-73
2022/06/23 01:45:33;;;;;;;;;;;;;;;;;;8414567;27;27316;-73
2022/06/23 01:49:33;;;;;;;;;;;;;;;;;;8417463;27;27456;-73
2022/06/23 01:53:34;;;;;;;;;;;;;;;;;;8412967;27;27389;-73
2022/06/23 01:57:34;;;;;;;;;;;;;;;;;;8416901;27;27522;-73
2022/06/23 02:01:35;;;;;;;;;;;;;;;;;;8413418;27;27360;-73
2022/06/23 02:05:35;;;;;;;;;;;;;;;;;;8413577;27;28460;-73
2022/06/23 02:09:35;;;;;;;;;;;;;;;;;;8416222;27;27800;-73
2022/06/23 02:13:35;;;;;;;;;;;;;;;;;;8416671;27;28400;-73
2022/06/23 02:17:35;;;;;;;;;;;;;;;;;;8416586;27;27401;-73
2022/06/23 02:21:35;;;;;;;;;;;;;;;;;;8417655;27;28470;-73
2022/06/23 02:25:35;;;;;;;;;;;;;;;;;;8414155;27;28541;-72
2022/06/23 02:29:35;;;;;;;;;;;;;;;;;;8415553;27;29279;-73
2022/06/23 02:33:36;;;;;;;;;;;;;;;;;;8411150;27;27535;-73
2022/06/23 02:37:36;;;;;;;;;;;;;;;;;;8411527;27;29119;-72
2022/06/23 02:41:36;;;;;;;;;;;;;;;;;;8421532;27;27765;-74
2022/06/23 02:45:36;;;;;;;;;;;;;;;;;;8419470;27;27226;-74
2022/06/23 02:49:36;;;;;;;;;;;;;;;;;;8417465;27;27275;-73
2022/06/23 02:53:36;;;;;;;;;;;;;;;;;;8415448;27;27207;-74
2022/06/23 02:57:36;;;;;;;;;;;;;;;;;;8421812;27;27192;-74
2022/06/23 03:01:37;;;;;;;;;;;;;;;;;;8420938;27;28378;-74
2022/06/23 03:05:37;;;;;;;;;;;;;;;;;;8419714;27;27576;-73
2022/06/23 03:09:37;;;;;;;;;;;;;;;;;;8419025;27;29924;-73
2022/06/23 03:13:37;;;;;;;;;;;;;;;;;;8420338;27;28488;-74
2022/06/23 03:17:37;;;;;;;;;;;;;;;;;;8421787;27;29596;-74
2022/06/23 03:21:37;;;;;;;;;;;;;;;;;;8413610;27;27285;-74
2022/06/23 03:25:37;;;;;;;;;;;;;;;;;;8419969;27;28543;-74
2022/06/23 03:29:38;;;;;;;;;;;;;;;;;;8416604;27;27530;-74
2022/06/23 03:33:38;;;;;;;;;;;;;;;;;;8416661;27;27838;-74
2022/06/23 03:37:38;;;;;;;;;;;;;;;;;;8418308;27;27537;-73
2022/06/23 03:41:38;;;;;;;;;;;;;;;;;;8420788;27;27529;-74
2022/06/23 03:45:38;;;;;;;;;;;;;;;;;;8419581;27;28132;-73
2022/06/23 03:49:38;;;;;;;;;;;;;;;;;;8416347;27;28150;-74
2022/06/23 03:53:39;;;;;;;;;;;;;;;;;;8417283;27;27303;-74
2022/06/23 03:57:39;;;;;;;;;;;;;;;;;;8411812;27;28298;-74
2022/06/23 04:01:39;;;;;;;;;;;;;;;;;;8416023;27;27239;-74
2022/06/23 04:05:39;;;;;;;;;;;;;;;;;;8418103;27;27415;-74
2022/06/23 04:09:39;;;;;;;;;;;;;;;;;;8413314;27;27230;-74
2022/06/23 04:13:39;;;;;;;;;;;;;;;;;;8414834;27;28553;-74
2022/06/23 04:17:41;;;;;;;;;;;;;;;;;;8418311;27;27854;-74
2022/06/23 04:21:41;;;;;;;;;;;;;;;;;;8414832;27;28375;-73
2022/06/23 04:25:41;;;;;;;;;;;;;;;;;;8415460;27;27494;-74
2022/06/23 04:29:41;;;;;;;;;;;;;;;;;;8420952;27;28327;-74
2022/06/23 04:33:43;;;;;;;;;;;;;;;;;;8420313;27;28401;-74
2022/06/23 04:37:43;;;;;;;;;;;;;;;;;;8419273;27;28639;-74
2022/06/23 04:41:43;;;;;;;;;;;;;;;;;;8415876;27;27537;-73
2022/06/23 04:45:43;;;;;;;;;;;;;;;;;;8422273;27;27343;-74
2022/06/23 04:49:44;;;;;;;;;;;;;;;;;;8416108;27;27334;-74
2022/06/23 04:53:44;;;;;;;;;;;;;;;;;;8419844;27;29407;-73
2022/06/23 04:57:44;;;;;;;;;;;;;;;;;;8419637;27;27370;-74
2022/06/23 05:01:44;;;;;;;;;;;;;;;;;;8411162;27;27960;-74
2022/06/23 05:05:44;;;;;;;;;;;;;;;;;;8414037;27;27390;-74
2022/06/23 05:09:44;;;;;;;;;;;;;;;;;;8407384;27;27317;-73
2022/06/23 05:13:44;;;;;;;;;;;;;;;;;;8416730;27;27135;-73
2022/06/23 05:17:44;;;;;;;;;;;;;;;;;;8414708;27;27378;-73
2022/06/23 05:21:47;;;;;;;;;;;;;;;;;;8410189;27;27411;-74
2022/06/23 05:25:47;;;;;;;;;;;;;;;;;;8418233;27;27624;-72
2022/06/23 05:29:49;;;;;;;;;;;;;;;;;;8414928;27;27346;-72
2022/06/23 05:33:49;;;;;;;;;;;;;;;;;;8417639;27;28655;-73
2022/06/23 05:37:50;;;;;;;;;;;;;;;;;;8412707;27;27333;-73
2022/06/23 05:41:50;;;;;;;;;;;;;;;;;;8414084;27;27747;-73
2022/06/23 05:45:50;;;;;;;;;;;;;;;;;;8413597;27;28257;-73
2022/06/23 05:49:50;;;;;;;;;;;;;;;;;;8412373;27;27573;-74
2022/06/23 05:53:50;;;;;;;;;;;;;;;;;;8414661;27;27661;-74
2022/06/23 05:57:51;;;;;;;;;;;;;;;;;;8414521;27;27371;-74
2022/06/23 06:01:51;;;;;;;;;;;;;;;;;;8409001;27;28278;-74
2022/06/23 06:05:51;;;;;;;;;;;;;;;;;;8413778;27;27387;-74
2022/06/23 06:09:51;;;;;;;;;;;;;;;;;;8413913;27;28254;-74
2022/06/23 06:13:51;;;;;;;;;;;;;;;;;;8411326;27;29327;-73
2022/06/23 06:17:51;;;;;;;;;;;;;;;;;;8414039;27;27586;-73
2022/06/23 06:21:51;;;;;;;;;;;;;;;;;;8410713;27;27605;-74
2022/06/23 06:25:52;;;;;;;;;;;;;;;;;;8416738;27;28346;-75
2022/06/23 06:29:52;;;;;;;;;;;;;;;;;;8414988;27;29479;-75
2022/06/23 06:33:52;;;;;;;;;;;;;;;;;;8407917;27;28313;-75
2022/06/23 06:37:54;;;;;;;;;;;;;;;;;;8416137;27;27458;-75
2022/06/23 06:41:54;;;;;;;;;;;;;;;;;;8405755;27;28004;-74
2022/06/23 06:45:55;;;;;;;;;;;;;;;;;;8415067;27;27351;-74
2022/06/23 06:49:55;;;;;;;;;;;;;;;;;;8410044;27;27269;-74
2022/06/23 06:53:55;;;;;;;;;;;;;;;;;;8408469;27;28393;-74
2022/06/23 06:57:55;;;;;;;;;;;;;;;;;;8413285;27;27136;-74
2022/06/23 07:01:55;;;;;;;;;;;;;;;;;;8415002;27;27365;-74
2022/06/23 07:05:55;;;;;;;;;;;;;;;;;;8418149;27;28431;-75
2022/06/23 07:09:57;;;;;;;;;;;;;;;;;;8420482;27;27165;-75
2022/06/23 07:13:59;;;;;;;;;;;;;;;;;;8411574;27;27250;-74
2022/06/23 07:18:02;;;;;;;;;;;;;;;;;;8418744;27;28243;-73
2022/06/23 07:22:02;;;;;;;;;;;;;;;;;;8414546;27;28438;-73
2022/06/23 07:26:02;;;;;;;;;;;;;;;;;;8419409;27;28523;-73
2022/06/23 07:30:02;;;;;;;;;;;;;;;;;;8425207;27;27581;-74
2022/06/23 07:34:02;;;;;;;;;;;;;;;;;;8421645;27;27405;-72
2022/06/23 07:38:02;;;;;;;;;;;;;;;;;;8420834;27;27391;-74
2022/06/23 07:42:03;;;;;;;;;;;;;;;;;;8422523;27;27183;-74
2022/06/23 07:46:03;;;;;;;;;;;;;;;;;;8422590;27;29642;-73
2022/06/23 07:50:03;;;;;;;;;;;;;;;;;;8402699;27;29896;-74
2022/06/23 07:54:03;;;;;;;;;;;;;;;;;;8413666;27;27723;-74
2022/06/23 07:58:07;;;;;;;;;;;;;;;;;;8414345;27;46370;-73
2022/06/23 08:02:07;;;;;;;;;;;;;;;;;;8414336;27;27453;-75
2022/06/23 08:06:07;;;;;;;;;;;;;;;;;;8413030;27;28351;-73
2022/06/23 08:10:07;;;;;;;;;;;;;;;;;;8413914;27;27569;-73
2022/06/23 08:14:07;;;;;;;;;;;;;;;;;;8400744;27;28058;-74
2022/06/23 08:18:07;;;;;;;;;;;;;;;;;;8407912;27;29309;-74
2022/06/23 08:22:08;;;;;;;;;;;;;;;;;;8409583;27;28010;-73
2022/06/23 08:26:10;;;;;;;;;;;;;;;;;;8407364;27;28044;-73
2022/06/23 08:30:10;;;;;;;;;;;;;;;;;;8407481;27;28713;-73
2022/06/23 08:34:10;;;;;;;;;;;;;;;;;;8404051;27;27473;-73
2022/06/23 08:38:13;;;;;;;;;;;;;;;;;;8407119;27;27569;-73
2022/06/23 08:42:13;;;;;;;;;;;;;;;;;;8410920;27;28548;-73
2022/06/23 08:46:16;;;;;;;;;;;;;;;;;;8399056;27;27550;-73
2022/06/23 08:50:16;;;;;;;;;;;;;;;;;;8410351;27;28785;-73
2022/06/23 08:54:16;;;;;;;;;;;;;;;;;;8414276;27;27425;-73
2022/06/23 08:58:16;;;;;;;;;;;;;;;;;;8420254;27;28269;-73
2022/06/23 09:02:17;;;;;;;;;;;;;;;;;;8419404;27;27982;-73
2022/06/23 09:06:17;;;;;;;;;;;;;;;;;;8414443;27;28482;-72
2022/06/23 09:10:17;;;;;;;;;;;;;;;;;;8413292;27;27892;-72
2022/06/23 09:14:17;;;;;;;;;;;;;;;;;;8407995;27;27092;-72
2022/06/23 09:18:17;;;;;;;;;;;;;;;;;;8408493;27;28255;-73
2022/06/23 09:22:17;;;;;;;;;;;;;;;;;;8411639;27;27583;-72
2022/06/23 09:26:17;;;;;;;;;;;;;;;;;;8413285;27;27191;-72
2022/06/23 09:30:18;;;;;;;;;;;;;;;;;;8417296;27;27667;-72
2022/06/23 09:34:20;;;;;;;;;;;;;;;;;;8410570;27;28417;-73
2022/06/23 09:38:20;;;;;;;;;;;;;;;;;;8412607;27;27374;-72
2022/06/23 09:42:20;;;;;;;;;;;;;;;;;;8413103;27;27347;-72
2022/06/23 09:46:21;;;;;;;;;;;;;;;;;;8411295;27;28298;-72
2022/06/23 09:50:21;;;;;;;;;;;;;;;;;;8417330;27;28397;-72
2022/06/23 09:54:21;;;;;;;;;;;;;;;;;;8415520;27;27326;-72
2022/06/23 09:58:21;;;;;;;;;;;;;;;;;;8413582;27;27561;-73
2022/06/23 10:02:24;;;;;;;;;;;;;;;;;;8412847;27;27299;-73
2022/06/23 10:06:24;;;;;;;;;;;;;;;;;;8409617;27;27554;-72
2022/06/23 10:10:24;;;;;;;;;;;;;;;;;;8411330;27;28197;-72
2022/06/23 10:14:24;;;;;;;;;;;;;;;;;;8401044;27;27617;-72
2022/06/23 10:18:25;;;;;;;;;;;;;;;;;;8412230;27;27898;-71
2022/06/23 10:22:25;;;;;;;;;;;;;;;;;;8403039;27;27498;-73
2022/06/23 10:26:26;;;;;;;;;;;;;;;;;;8406567;27;27495;-73
2022/06/23 10:30:26;;;;;;;;;;;;;;;;;;8403992;27;27435;-72
2022/06/23 10:34:26;;;;;;;;;;;;;;;;;;8403344;27;27552;-73
2022/06/23 10:38:27;;;;;;;;;;;;;;;;;;8410489;27;27750;-72
2022/06/23 10:42:27;;;;;;;;;;;;;;;;;;8402541;27;27653;-72
2022/06/23 10:46:27;;;;;;;;;;;;;;;;;;8407687;27;27777;-71
2022/06/23 10:50:28;;;;;;;;;;;;;;;;;;8412232;27;28442;-72
2022/06/23 10:54:28;;;;;;;;;;;;;;;;;;8404283;27;27649;-73
2022/06/23 10:58:28;;;;;;;;;;;;;;;;;;8411296;27;27443;-73
2022/06/23 11:02:28;;;;;;;;;;;;;;;;;;8418642;27;27279;-73
2022/06/23 11:06:28;;;;;;;;;;;;;;;;;;8417747;27;28282;-72
2022/06/23 11:10:29;;;;;;;;;;;;;;;;;;8420613;27;27497;-72
2022/06/23 11:14:31;;;;;;;;;;;;;;;;;;8415330;27;27262;-73
2022/06/23 11:18:31;;;;;;;;;;;;;;;;;;8417175;27;27847;-71
2022/06/23 11:22:31;;;;;;;;;;;;;;;;;;8420550;27;27696;-72
2022/06/23 11:26:32;;;;;;;;;;;;;;;;;;8414925;27;27452;-73
2022/06/23 11:30:32;;;;;;;;;;;;;;;;;;8413392;27;28573;-74
2022/06/23 11:34:32;;;;;;;;;;;;;;;;;;8411446;27;29148;-73
2022/06/23 11:38:32;;;;;;;;;;;;;;;;;;8412613;27;27530;-73
2022/06/23 11:42:32;;;;;;;;;;;;;;;;;;8411496;27;27438;-74
2022/06/23 11:46:32;;;;;;;;;;;;;;;;;;8412897;27;27624;-74
2022/06/23 11:50:32;;;;;;;;;;;;;;;;;;8415523;27;28527;-73
2022/06/23 11:54:34;;;;;;;;;;;;;;;;;;8407696;27;28680;-73
2022/06/23 11:58:35;;;;;;;;;;;;;;;;;;8414197;27;29487;-74
2022/06/23 12:02:37;;;;;;;;;;;;;;;;;;8404150;27;28443;-74
2022/06/23 12:06:37;;;;;;;;;;;;;;;;;;8408282;27;28562;-74
2022/06/23 12:10:37;;;;;;;;;;;;;;;;;;8408207;27;27173;-74
2022/06/23 12:14:37;;;;;;;;;;;;;;;;;;8410556;27;27328;-74
2022/06/23 12:18:38;;;;;;;;;;;;;;;;;;8415291;27;28192;-73
2022/06/23 12:22:38;;;;;;;;;;;;;;;;;;8406607;27;28301;-74
2022/06/23 12:26:38;;;;;;;;;;;;;;;;;;8407685;27;27641;-74
2022/06/23 12:30:38;;;;;;;;;;;;;;;;;;8410343;27;27376;-73
2022/06/23 12:34:38;;;;;;;;;;;;;;;;;;8405429;27;28301;-74
2022/06/23 12:38:38;;;;;;;;;;;;;;;;;;8411405;27;27291;-73
2022/06/23 12:42:38;;;;;;;;;;;;;;;;;;8408457;27;28396;-73
2022/06/23 12:46:39;;;;;;;;;;;;;;;;;;8406014;27;27194;-72
2022/06/23 12:50:39;;;;;;;;;;;;;;;;;;8409546;27;27701;-72
2022/06/23 12:54:39;;;;;;;;;;;;;;;;;;8405516;27;28054;-73
2022/06/23 12:58:39;;;;;;;;;;;;;;;;;;8408968;27;28268;-73
2022/06/23 13:02:43;;;;;;;;;;;;;;;;;;8406314;27;27324;-73
2022/06/23 13:06:43;;;;;;;;;;;;;;;;;;8403334;27;27568;-72
2022/06/23 13:10:43;;;;;;;;;;;;;;;;;;8404680;27;27200;-72
2022/06/23 13:14:43;;;;;;;;;;;;;;;;;;8403746;27;27473;-72
2022/06/23 13:18:44;;;;;;;;;;;;;;;;;;8409007;27;27700;-72
2022/06/23 13:22:44;;;;;;;;;;;;;;;;;;8402505;27;28063;-72
2022/06/23 13:26:47;;;;;;;;;;;;;;;;;;8405260;27;27512;-72
2022/06/23 13:30:47;;;;;;;;;;;;;;;;;;8406149;27;27542;-72
2022/06/23 13:34:47;;;;;;;;;;;;;;;;;;8405696;27;27385;-73
2022/06/23 13:38:48;;;;;;;;;;;;;;;;;;8409613;27;28516;-73
2022/06/23 13:42:48;;;;;;;;;;;;;;;;;;8413674;27;27395;-72
2022/06/23 13:46:50;;;;;;;;;;;;;;;;;;8404608;27;28403;-73
2022/06/23 13:50:50;;;;;;;;;;;;;;;;;;8406962;27;27721;-72
2022/06/23 13:54:51;;;;;;;;;;;;;;;;;;8403548;27;27336;-73
2022/06/23 13:58:51;;;;;;;;;;;;;;;;;;8407419;27;28637;-72
2022/06/23 14:02:51;;;;;;;;;;;;;;;;;;8406698;27;27990;-72
2022/06/23 14:06:52;;;;;;;;;;;;;;;;;;8407161;27;27619;-72
2022/06/23 14:10:52;;;;;;;;;;;;;;;;;;8405264;27;27372;-72
2022/06/23 14:14:52;;;;;;;;;;;;;;;;;;8409464;27;27406;-72
2022/06/23 14:18:52;;;;;;;;;;;;;;;;;;8410430;27;27462;-72
2022/06/23 14:22:52;;;;;;;;;;;;;;;;;;8407439;27;28382;-72
2022/06/23 14:26:53;;;;;;;;;;;;;;;;;;8406651;27;29388;-72
2022/06/23 14:30:56;;;;;;;;;;;;;;;;;;8408615;27;28571;-72
2022/06/23 14:34:56;;;;;;;;;;;;;;;;;;8417515;27;28781;-72
2022/06/23 14:38:58;;;;;;;;;;;;;;;;;;8414461;27;28059;-72
2022/06/23 14:42:58;;;;;;;;;;;;;;;;;;8416831;27;27377;-72
2022/06/23 14:46:58;;;;;;;;;;;;;;;;;;8414942;27;28294;-72
2022/06/23 14:50:59;;;;;;;;;;;;;;;;;;8413931;27;27364;-71
2022/06/23 14:54:59;;;;;;;;;;;;;;;;;;8414587;27;27778;-72
2022/06/23 14:58:59;;;;;;;;;;;;;;;;;;8414581;27;27481;-72
2022/06/23 15:02:59;;;;;;;;;;;;;;;;;;8412475;27;28049;-72
2022/06/23 15:06:59;;;;;;;;;;;;;;;;;;8410638;27;27299;-73
2022/06/23 15:11:02;;;;;;;;;;;;;;;;;;8417935;27;28036;-72
2022/06/23 15:15:02;;;;;;;;;;;;;;;;;;8416859;27;28431;-72
2022/06/23 15:19:03;;;;;;;;;;;;;;;;;;8410862;27;27140;-72
2022/06/23 15:23:14;;;;;;;;;;;;;;;;;;8415477;27;27346;-72
2022/06/23 15:27:14;;;;;;;;;;;;;;;;;;8402566;27;27468;-72
2022/06/23 15:31:14;;;;;;;;;;;;;;;;;;8411908;27;27585;-72
2022/06/23 15:35:14;;;;;;;;;;;;;;;;;;8406989;27;28299;-72
2022/06/23 15:39:15;;;;;;;;;;;;;;;;;;8407237;27;28262;-72
2022/06/23 15:43:16;;;;;;;;;;;;;;;;;;8408687;27;27305;-72
2022/06/23 15:47:16;;;;;;;;;;;;;;;;;;8409118;27;27310;-72
2022/06/23 15:51:17;;;;;;;;;;;;;;;;;;8409482;27;27811;-73
2022/06/23 15:55:17;;;;;;;;;;;;;;;;;;8404173;27;28544;-72
2022/06/23 15:59:17;;;;;;;;;;;;;;;;;;8409066;27;28273;-72
2022/06/23 16:03:17;;;;;;;;;;;;;;;;;;8410286;27;46326;-72
2022/06/23 16:07:18;;;;;;;;;;;;;;;;;;8411422;27;29047;-72
2022/06/23 16:11:18;;;;;;;;;;;;;;;;;;8408452;27;27411;-72
2022/06/23 16:15:18;;;;;;;;;;;;;;;;;;8410891;27;27601;-73
2022/06/23 16:19:18;;;;;;;;;;;;;;;;;;8413352;27;27377;-72
2022/06/23 16:23:19;;;;;;;;;;;;;;;;;;8405643;27;28281;-72
2022/06/23 16:27:19;;;;;;;;;;;;;;;;;;8410851;27;27301;-73
2022/06/23 16:31:19;;;;;;;;;;;;;;;;;;8409757;27;27425;-73
2022/06/23 16:35:19;;;;;;;;;;;;;;;;;;8409579;27;27545;-72
2022/06/23 16:39:19;;;;;;;;;;;;;;;;;;8414800;27;28471;-72
2022/06/23 16:43:19;;;;;;;;;;;;;;;;;;8413760;27;28291;-73
2022/06/23 16:47:20;;;;;;;;;;;;;;;;;;8412329;27;28493;-72
2022/06/23 16:51:20;;;;;;;;;;;;;;;;;;8412588;27;28236;-72
2022/06/23 16:55:23;;;;;;;;;;;;;;;;;;8410124;27;27786;-73
2022/06/23 16:59:23;;;;;;;;;;;;;;;;;;8418138;27;27644;-72
2022/06/23 17:03:25;;;;;;;;;;;;;;;;;;8409230;27;27512;-74
2022/06/23 17:07:26;;;;;;;;;;;;;;;;;;8412131;27;27291;-73
2022/06/23 17:11:26;;;;;;;;;;;;;;;;;;8412131;27;27871;-73
2022/06/23 17:15:26;;;;;;;;;;;;;;;;;;8412221;27;27432;-74
2022/06/23 17:19:29;;;;;;;;;;;;;;;;;;8414859;27;27411;-73
2022/06/23 17:23:29;;;;;;;;;;;;;;;;;;8411897;27;27531;-73
2022/06/23 17:27:29;;;;;;;;;;;;;;;;;;8411157;27;27509;-74
2022/06/23 17:31:29;;;;;;;;;;;;;;;;;;8413733;27;28589;-73
2022/06/23 17:35:29;;;;;;;;;;;;;;;;;;8404112;27;27219;-73
2022/06/23 17:43:48;;;;;;;;;;;;;;;;;;8401905;27;27464;-74
2022/06/23 17:47:48;;;;;;;;;;;;;;;;;;8405888;27;28051;-75
2022/06/23 17:51:49;;;;;;;;;;;;;;;;;;8401138;27;27248;-74
2022/06/23 17:55:50;;;;;;;;;;;;;;;;;;8401947;27;27598;-75
2022/06/23 17:59:50;;;;;;;;;;;;;;;;;;8405207;27;27531;-74
2022/06/23 18:03:51;;;;;;;;;;;;;;;;;;8399421;27;28855;-75
2022/06/23 18:07:53;;;;;;;;;;;;;;;;;;8408720;27;28425;-75
2022/06/23 18:11:53;;;;;;;;;;;;;;;;;;8402932;27;28383;-75
2022/06/23 18:15:53;;;;;;;;;;;;;;;;;;8403282;27;27740;-74
2022/06/23 18:19:53;;;;;;;;;;;;;;;;;;8404213;27;27476;-74
2022/06/23 18:23:54;;;;;;;;;;;;;;;;;;8400479;27;27259;-73
2022/06/23 18:27:54;;;;;;;;;;;;;;;;;;8400286;27;27614;-72
2022/06/23 18:31:54;;;;;;;;;;;;;;;;;;8400280;27;28000;-74
2022/06/23 18:35:54;;;;;;;;;;;;;;;;;;8403492;27;27634;-74
2022/06/23 18:39:55;;;;;;;;;;;;;;;;;;8409507;27;28201;-74
2022/06/23 18:43:55;;;;;;;;;;;;;;;;;;8400544;27;28315;-74
2022/06/23 18:47:55;;;;;;;;;;;;;;;;;;8408303;27;27986;-74
2022/06/23 18:51:55;;;;;;;;;;;;;;;;;;8408640;27;30177;-74
2022/06/23 18:55:56;;;;;;;;;;;;;;;;;;8404428;27;28253;-73
2022/06/23 18:59:56;;;;;;;;;;;;;;;;;;8411920;27;28378;-74
2022/06/23 19:03:56;;;;;;;;;;;;;;;;;;8404222;27;27598;-74
2022/06/23 19:07:56;;;;;;;;;;;;;;;;;;8404291;27;28615;-74
2022/06/23 19:11:57;;;;;;;;;;;;;;;;;;8404210;27;28066;-73
2022/06/23 19:15:57;;;;;;;;;;;;;;;;;;8402493;27;27996;-74
2022/06/23 19:19:59;;;;;;;;;;;;;;;;;;8402999;27;27661;-73
2022/06/23 19:23:59;;;;;;;;;;;;;;;;;;8403478;27;28875;-73
2022/06/23 19:27:59;;;;;;;;;;;;;;;;;;8410367;27;27592;-74
2022/06/23 19:32:00;;;;;;;;;;;;;;;;;;8408853;27;27386;-74
2022/06/23 19:36:00;;;;;;;;;;;;;;;;;;8410035;27;27919;-74
2022/06/23 19:40:00;;;;;;;;;;;;;;;;;;8410411;27;27495;-73
2022/06/23 19:44:00;;;;;;;;;;;;;;;;;;8406800;27;27472;-74
2022/06/23 19:48:00;;;;;;;;;;;;;;;;;;8410493;27;27552;-74
2022/06/23 19:52:00;;;;;;;;;;;;;;;;;;8409916;27;27279;-74
2022/06/23 19:56:01;;;;;;;;;;;;;;;;;;8409691;27;27609;-74
2022/06/23 20:00:01;;;;;;;;;;;;;;;;;;8407356;27;27445;-73
2022/06/23 20:04:01;;;;;;;;;;;;;;;;;;8413444;27;27254;-74
2022/06/23 20:08:01;;;;;;;;;;;;;;;;;;8411394;27;27764;-73
2022/06/23 20:12:02;;;;;;;;;;;;;;;;;;8409810;27;27556;-74
2022/06/23 20:16:02;;;;;;;;;;;;;;;;;;8407261;27;27856;-74
2022/06/23 20:20:02;;;;;;;;;;;;;;;;;;8409358;27;27255;-74
2022/06/23 20:24:02;;;;;;;;;;;;;;;;;;8407532;27;27811;-74
2022/06/23 20:28:03;;;;;;;;;;;;;;;;;;8407330;27;27768;-73
2022/06/23 20:32:03;;;;;;;;;;;;;;;;;;8410979;27;28357;-74
2022/06/23 20:36:04;;;;;;;;;;;;;;;;;;8402846;27;28386;-74
2022/06/23 20:40:04;;;;;;;;;;;;;;;;;;8399543;27;27376;-74
2022/06/23 20:44:04;;;;;;;;;;;;;;;;;;8406498;27;28411;-73
2022/06/23 20:48:05;;;;;;;;;;;;;;;;;;8407021;27;46365;-71
2022/06/23 20:52:06;;;;;;;;;;;;;;;;;;8400794;27;29377;-74
2022/06/23 20:56:06;;;;;;;;;;;;;;;;;;8401283;27;27168;-72
2022/06/23 21:00:06;;;;;;;;;;;;;;;;;;8407061;27;28469;-72
2022/06/23 21:04:06;;;;;;;;;;;;;;;;;;8407644;27;28298;-73
2022/06/23 21:08:06;;;;;;;;;;;;;;;;;;8407394;27;28012;-72
2022/06/23 21:12:07;;;;;;;;;;;;;;;;;;8412485;27;28499;-72
2022/06/23 21:16:07;;;;;;;;;;;;;;;;;;8405139;27;27487;-71
2022/06/23 21:20:07;;;;;;;;;;;;;;;;;;8406907;27;27831;-72
2022/06/23 21:24:07;;;;;;;;;;;;;;;;;;8405823;27;29131;-72
2022/06/23 21:28:10;;;;;;;;;;;;;;;;;;8410197;27;28214;-71
2022/06/23 21:32:10;;;;;;;;;;;;;;;;;;8406739;27;27654;-73
2022/06/23 21:36:10;;;;;;;;;;;;;;;;;;8403644;27;27740;-73
2022/06/23 21:40:10;;;;;;;;;;;;;;;;;;8411105;27;27233;-73
2022/06/23 21:44:11;;;;;;;;;;;;;;;;;;8404713;27;27644;-73
2022/06/23 21:48:11;;;;;;;;;;;;;;;;;;8412188;27;28267;-73
2022/06/23 21:52:12;;;;;;;;;;;;;;;;;;8403260;27;27753;-73
2022/06/23 21:56:12;;;;;;;;;;;;;;;;;;8404451;27;27824;-73
2022/06/23 22:00:12;;;;;;;;;;;;;;;;;;8401895;27;28391;-72
2022/06/23 22:04:12;;;;;;;;;;;;;;;;;;8400942;27;27607;-73
2022/06/23 22:08:12;;;;;;;;;;;;;;;;;;8405360;27;28550;-74
2022/06/23 22:12:12;;;;;;;;;;;;;;;;;;8402928;27;28121;-74
2022/06/23 22:16:12;;;;;;;;;;;;;;;;;;8404532;27;28013;-73
2022/06/23 22:20:14;;;;;;;;;;;;;;;;;;8404876;27;47521;-73
2022/06/23 22:28:33;;;;;;;;;;;;;;;;;;8403528;27;27365;-74
2022/06/23 22:32:34;;;;;;;;;;;;;;;;;;8404476;27;27113;-73
2022/06/23 22:36:37;;;;;;;;;;;;;;;;;;8405990;27;27322;-72
2022/06/23 22:40:37;;;;;;;;;;;;;;;;;;8401191;27;27334;-71
2022/06/23 22:44:37;;;;;;;;;;;;;;;;;;8400900;27;27195;-73
2022/06/23 22:48:37;;;;;;;;;;;;;;;;;;8408148;27;28711;-73
2022/06/23 22:52:37;;;;;;;;;;;;;;;;;;8407495;27;29148;-74
2022/06/23 22:56:37;;;;;;;;;;;;;;;;;;8404903;27;27518;-73
2022/06/23 23:00:37;;;;;;;;;;;;;;;;;;8410892;27;27346;-73
2022/06/23 23:04:38;;;;;;;;;;;;;;;;;;8411084;27;28190;-73
2022/06/23 23:08:38;;;;;;;;;;;;;;;;;;8409877;27;27775;-73
2022/06/23 23:12:38;;;;;;;;;;;;;;;;;;8411031;27;27205;-73
2022/06/23 23:16:39;;;;;;;;;;;;;;;;;;8405227;27;28309;-73
2022/06/23 23:20:39;;;;;;;;;;;;;;;;;;8407747;27;27835;-73
2022/06/23 23:24:39;;;;;;;;;;;;;;;;;;8407547;27;27426;-73
2022/06/23 23:28:39;;;;;;;;;;;;;;;;;;8409958;27;28367;-73
2022/06/23 23:32:39;;;;;;;;;;;;;;;;;;8407918;27;28392;-73
2022/06/23 23:36:39;;;;;;;;;;;;;;;;;;8404546;27;27289;-73
2022/06/23 23:40:39;;;;;;;;;;;;;;;;;;8407450;27;27331;-73
2022/06/23 23:44:40;;;;;;;;;;;;;;;;;;8407369;27;27779;-73
2022/06/23 23:48:40;;;;;;;;;;;;;;;;;;8407885;27;27558;-73
2022/06/23 23:52:40;;;;;;;;;;;;;;;;;;8407882;27;29089;-73
2022/06/23 23:56:40;;;;;;;;;;;;;;;;;;8404278;27;27477;-73
